This is the latest recevied weather packets stored in our database for station/object eb1ayw-13. If no packets are shown the sender has not sent any weather packets the latest 10 day(s).
| Time | Temp. | Humidity | Pressure | Rain* | Wind** | Luminosity | Snow |
|---|---|---|---|---|---|---|---|
| 1778231870 | 38.89° C | 20% | 999.9 hPa | - | - | - | - |
| 1778231270 | 37.78° C | 21% | 1000.4 hPa | - | - | - | - |
| 1778230670 | 35° C | 23% | 1001.1 hPa | - | - | - | - |
| 1778230070 | 39.44° C | 19% | 999.7 hPa | - | - | - | - |
| 1778229470 | 36.67° C | 23% | 1000.2 hPa | - | - | - | - |
| 1778228870 | 34.44° C | 24% | 1001 hPa | - | - | - | - |
| 1778228270 | 44.44° C | 16% | 998.9 hPa | - | - | - | - |
| 1778227670 | 40.56° C | 18% | 999.8 hPa | - | - | - | - |
| 1778227070 | 43.33° C | 17% | 998.9 hPa | - | - | - | - |
| 1778226470 | 40° C | 19% | 999.6 hPa | - | - | - | - |
| 1778225870 | 35° C | 23% | 1000.8 hPa | - | - | - | - |
| 1778225270 | 42.22° C | 17% | 999.3 hPa | - | - | - | - |
| 1778224670 | 42.78° C | 17% | 999.2 hPa | - | - | - | - |
| 1778224070 | 43.33° C | 16% | 998.9 hPa | - | - | - | - |
| 1778223470 | 41.11° C | 18% | 999.2 hPa | - | - | - | - |
| 1778222870 | 43.89° C | 16% | 998.5 hPa | - | - | - | - |
| 1778222270 | 43.33° C | 16% | 998.6 hPa | - | - | - | - |
| 1778221670 | 43.89° C | 15% | 998.1 hPa | - | - | - | - |
| 1778221070 | 37.22° C | 20% | 999.6 hPa | - | - | - | - |
| 1778220470 | 36.67° C | 21% | 999.7 hPa | - | - | - | - |
| 1778219870 | 39.44° C | 19% | 998.9 hPa | - | - | - | - |
| 1778219273 | 41.67° C | 17% | 998.4 hPa | - | - | - | - |
| 1778218670 | 37.22° C | 21% | 999.6 hPa | - | - | - | - |
| 1778218070 | 35.56° C | 22% | 1000 hPa | - | - | - | - |
| 1778217470 | 38.89° C | 19% | 999.1 hPa | - | - | - | - |
* Rain since midnight (hover to see other rain measurements)
** Current wind speed in m/s (hover to see current wind gust speed)